createdAt,value
2018-05-24T00:01:45.168Z,50.75
2018-05-24T00:06:47.756Z,51.03
2018-05-24T00:11:50.621Z,51.26
2018-05-24T00:16:54.011Z,51.37
2018-05-24T00:21:56.496Z,51.58
2018-05-24T00:26:58.992Z,51.63
2018-05-24T00:32:01.529Z,52.06
2018-05-24T00:37:04.040Z,51.96
2018-05-24T00:42:06.565Z,52.11
2018-05-24T00:47:09.082Z,52.87
2018-05-24T00:52:11.578Z,52.71
2018-05-24T00:57:14.108Z,52.80
2018-05-24T01:02:16.645Z,53.04
2018-05-24T01:07:19.282Z,53.45
2018-05-24T01:12:21.820Z,53.55
2018-05-24T01:17:25.016Z,53.89
2018-05-24T01:22:27.491Z,53.98
2018-05-24T01:27:30.001Z,54.70
2018-05-24T01:32:32.492Z,55.34
2018-05-24T01:37:47.954Z,55.81
2018-05-24T01:42:50.509Z,56.17
2018-05-24T01:47:53.020Z,56.28
2018-05-24T01:52:55.647Z,55.68
2018-05-24T01:57:58.099Z,55.92
2018-05-24T02:03:00.598Z,56.38
2018-05-24T02:08:03.116Z,56.08
2018-05-24T02:13:05.619Z,55.84
2018-05-24T02:18:08.105Z,56.27
2018-05-24T02:23:10.657Z,56.10
2018-05-24T02:28:13.504Z,55.96
2018-05-24T02:33:16.040Z,56.09
2018-05-24T02:38:18.830Z,55.99
2018-05-24T02:43:21.407Z,56.09
2018-05-24T02:48:23.967Z,55.93
2018-05-24T02:53:26.489Z,56.14
2018-05-24T03:03:37.572Z,56.48
2018-05-24T03:08:40.051Z,56.62
2018-05-24T03:13:44.784Z,56.32
2018-05-24T03:18:47.529Z,55.98
2018-05-24T03:23:50.067Z,56.15
2018-05-24T03:28:52.596Z,55.91
2018-05-24T03:33:55.479Z,55.72
2018-05-24T03:38:57.996Z,55.14
2018-05-24T03:44:00.573Z,54.80
2018-05-24T03:49:03.159Z,54.36
2018-05-24T03:54:05.629Z,54.16
2018-05-24T04:15:28.059Z,52.98
2018-05-24T04:20:30.541Z,52.32
2018-05-24T04:25:33.031Z,51.66
2018-05-24T04:30:35.565Z,46.42
2018-05-24T04:35:38.057Z,43.25
2018-05-24T04:40:40.562Z,45.23
2018-05-24T04:45:43.082Z,43.98
2018-05-24T04:50:45.604Z,44.00
2018-05-24T04:55:48.220Z,44.35
2018-05-24T05:00:50.862Z,44.88
2018-05-24T05:05:53.399Z,43.44
2018-05-24T05:10:55.905Z,42.03
2018-05-24T05:15:58.416Z,44.33
2018-05-24T05:26:28.289Z,44.27
2018-05-24T05:31:30.860Z,44.26
2018-05-24T05:36:33.652Z,43.76
2018-05-24T05:41:36.277Z,42.52
2018-05-24T05:46:38.782Z,41.31
2018-05-24T05:51:41.297Z,40.31
2018-05-24T05:56:43.912Z,37.83
2018-05-24T06:01:46.707Z,37.35
2018-05-24T06:06:49.194Z,40.71
2018-05-24T06:11:51.737Z,44.18
2018-05-24T06:16:54.248Z,41.14
2018-05-24T06:21:56.836Z,32.07
2018-05-24T06:26:59.300Z,27.52
2018-05-24T06:32:01.790Z,26.35
2018-05-24T06:37:04.294Z,26.49
2018-05-24T06:42:06.844Z,26.96
2018-05-24T06:47:09.352Z,27.49
2018-05-24T06:52:11.864Z,25.63
2018-05-24T06:57:14.405Z,27.45
2018-05-24T07:02:16.915Z,29.00
2018-05-24T07:07:19.425Z,30.81
2018-05-24T07:12:21.941Z,28.27
2018-05-24T07:17:25.297Z,30.29
2018-05-24T07:22:27.783Z,33.17
2018-05-24T07:27:30.254Z,36.15
2018-05-24T07:32:33.918Z,34.45
2018-05-24T07:37:36.414Z,34.25
2018-05-24T07:42:38.899Z,30.54
2018-05-24T07:47:41.416Z,27.69
2018-05-24T07:52:44.939Z,24.54
2018-05-24T07:57:47.563Z,24.58
2018-05-24T08:02:50.107Z,26.16
2018-05-24T08:07:52.615Z,23.95
2018-05-24T08:12:55.117Z,24.93
2018-05-24T08:17:57.588Z,26.51
2018-05-24T08:23:00.081Z,28.78
2018-05-24T08:28:02.600Z,28.92
2018-05-24T08:33:05.089Z,25.13
2018-05-24T08:38:07.584Z,24.16
2018-05-24T08:43:10.070Z,25.54
2018-05-24T08:48:12.632Z,27.90
2018-05-24T08:53:15.227Z,29.24
2018-05-24T08:58:17.719Z,32.43
2018-05-24T09:03:20.264Z,32.10
2018-05-24T09:08:22.847Z,29.42
2018-05-24T09:13:25.366Z,24.93
2018-05-24T09:18:27.860Z,25.49
2018-05-24T09:23:30.332Z,25.32
2018-05-24T09:28:32.847Z,27.88
2018-05-24T09:33:35.339Z,28.84
2018-05-24T09:38:37.834Z,25.85
2018-05-24T09:43:40.337Z,26.49
2018-05-24T09:48:42.903Z,24.86
2018-05-24T09:53:45.495Z,26.37
2018-05-24T09:58:48.023Z,25.41
2018-05-24T10:03:50.562Z,24.70
2018-05-24T10:08:53.095Z,26.32
2018-05-24T10:13:55.717Z,25.17
2018-05-24T10:18:58.239Z,26.34
2018-05-24T10:24:00.696Z,26.37
2018-05-24T10:29:03.306Z,24.89
2018-05-24T10:34:05.811Z,25.89
2018-05-24T10:39:08.588Z,26.37
2018-05-24T10:44:11.080Z,26.04
2018-05-24T10:49:13.595Z,25.88
2018-05-24T10:54:16.168Z,26.67
2018-05-24T10:59:18.709Z,27.31
2018-05-24T11:04:21.320Z,25.88
2018-05-24T11:09:23.970Z,26.29
2018-05-24T11:14:26.493Z,26.30
2018-05-24T11:19:29.107Z,25.96
2018-05-24T11:24:31.622Z,26.25
2018-05-24T11:29:34.114Z,26.50
2018-05-24T11:34:36.651Z,26.37
2018-05-24T11:39:41.406Z,26.20
2018-05-24T11:44:43.821Z,25.23
2018-05-24T11:49:46.331Z,25.11
2018-05-24T11:54:48.891Z,25.53
2018-05-24T11:59:51.549Z,27.28
2018-05-24T12:04:54.020Z,27.42
2018-05-24T12:09:56.643Z,27.62
2018-05-24T12:14:59.283Z,26.58
2018-05-24T12:20:01.808Z,26.44
2018-05-24T12:25:09.881Z,27.49
2018-05-24T12:30:12.659Z,26.59
2018-05-24T12:35:15.385Z,26.37
2018-05-24T12:40:17.825Z,27.38
2018-05-24T12:45:20.525Z,28.81
2018-05-24T12:50:23.018Z,28.60
2018-05-24T12:55:25.569Z,29.57
2018-05-24T13:00:28.088Z,27.30
2018-05-24T13:05:30.648Z,28.39
2018-05-24T13:10:33.143Z,27.59
2018-05-24T13:15:35.622Z,26.87
2018-05-24T13:20:38.108Z,27.79
2018-05-24T13:25:40.995Z,28.90
2018-05-24T13:30:43.489Z,28.27
2018-05-24T13:35:46.015Z,26.91
2018-05-24T13:40:48.984Z,28.13
2018-05-24T13:45:51.869Z,27.95
2018-05-24T13:50:54.664Z,27.64
2018-05-24T13:55:57.949Z,26.85
2018-05-24T14:01:00.457Z,26.98
2018-05-24T14:06:02.965Z,27.17
2018-05-24T14:11:05.466Z,27.47
2018-05-24T14:16:07.919Z,26.81
2018-05-24T14:21:10.418Z,26.49
2018-05-24T14:26:12.935Z,26.03
2018-05-24T14:31:15.421Z,27.66
2018-05-24T14:36:18.091Z,27.61
2018-05-24T14:41:21.291Z,27.37
2018-05-24T14:46:23.871Z,27.74
2018-05-24T14:51:26.576Z,25.54
2018-05-24T14:56:29.102Z,24.44
2018-05-24T15:01:31.613Z,26.74
2018-05-24T15:06:34.133Z,26.53
2018-05-24T15:11:37.385Z,25.82
2018-05-24T15:16:39.899Z,25.66
2018-05-24T15:21:42.398Z,26.78
2018-05-24T15:26:44.901Z,27.28
2018-05-24T15:31:48.080Z,27.07
2018-05-24T15:36:50.585Z,27.60
2018-05-24T15:41:53.480Z,26.02
2018-05-24T15:46:56.256Z,26.44
2018-05-24T15:51:58.848Z,26.63
2018-05-24T15:57:01.349Z,27.05
2018-05-24T16:02:03.860Z,26.61
2018-05-24T16:07:06.357Z,27.40
2018-05-24T16:12:08.850Z,26.20
2018-05-24T16:17:11.349Z,26.34
2018-05-24T16:22:13.823Z,26.53
2018-05-24T16:27:16.336Z,27.16
2018-05-24T16:32:18.859Z,28.17
2018-05-24T16:37:21.408Z,27.21
2018-05-24T16:42:23.972Z,27.52
2018-05-24T16:47:26.524Z,27.35
2018-05-24T16:52:29.065Z,27.29
2018-05-24T16:57:31.562Z,26.81
2018-05-24T17:02:34.044Z,27.40
2018-05-24T17:07:37.095Z,27.09
2018-05-24T17:12:39.746Z,27.09
2018-05-24T17:17:42.170Z,27.35
2018-05-24T17:22:44.677Z,27.99
2018-05-24T17:27:47.173Z,28.03
2018-05-24T17:32:49.756Z,28.39
2018-05-24T17:37:52.654Z,29.02
2018-05-24T17:42:55.833Z,28.45
2018-05-24T17:47:58.528Z,28.95
2018-05-24T17:53:02.252Z,28.63
2018-05-24T17:58:04.847Z,29.33
2018-05-24T18:03:07.330Z,29.44
2018-05-24T18:08:09.814Z,29.80
2018-05-24T18:13:12.367Z,30.48
2018-05-24T18:18:14.884Z,30.73
2018-05-24T18:23:17.809Z,31.24
2018-05-24T18:28:22.204Z,31.60
2018-05-24T18:33:24.728Z,31.72
2018-05-24T18:38:27.357Z,31.67
2018-05-24T18:43:31.091Z,32.00
2018-05-24T18:48:56.303Z,32.61
2018-05-24T18:54:00.104Z,32.76
2018-05-24T18:59:03.126Z,33.39
2018-05-24T19:04:10.108Z,33.71
2018-05-24T19:09:14.750Z,34.22
2018-05-24T19:14:17.267Z,34.46
2018-05-24T19:19:20.044Z,34.81
2018-05-24T19:24:24.931Z,35.41
2018-05-24T19:29:29.348Z,35.90
2018-05-24T19:34:33.646Z,36.22
2018-05-24T19:39:36.435Z,36.79
2018-05-24T19:44:42.362Z,37.54
2018-05-24T19:49:48.518Z,37.43
2018-05-24T19:54:52.146Z,38.46
2018-05-24T19:59:54.858Z,38.29
2018-05-24T20:04:59.871Z,38.76
2018-05-24T20:10:02.444Z,39.00
2018-05-24T20:15:05.069Z,38.94
2018-05-24T20:20:07.623Z,39.69
2018-05-24T20:25:10.054Z,39.84
2018-05-24T20:30:12.546Z,40.45
2018-05-24T20:35:15.072Z,40.50
2018-05-24T20:40:17.609Z,40.31
2018-05-24T20:45:20.133Z,41.16
2018-05-24T20:50:22.687Z,41.11
2018-05-24T20:55:26.975Z,41.69
2018-05-24T21:00:30.008Z,41.92
2018-05-24T21:05:34.290Z,42.62
2018-05-24T21:10:36.800Z,42.81
2018-05-24T21:15:39.846Z,43.06
2018-05-24T21:20:42.463Z,43.34
2018-05-24T21:25:45.701Z,43.40
2018-05-24T21:30:48.907Z,43.62
2018-05-24T21:35:51.824Z,44.22
2018-05-24T21:40:56.536Z,44.80
2018-05-24T21:45:59.090Z,44.77
2018-05-24T21:51:01.619Z,44.93
2018-05-24T21:56:04.359Z,45.11
2018-05-24T22:01:06.960Z,45.17
2018-05-24T22:06:09.498Z,45.33
2018-05-24T22:11:11.973Z,45.81
2018-05-24T22:16:14.519Z,45.95
2018-05-24T22:21:16.986Z,46.38
2018-05-24T22:26:19.551Z,46.45
2018-05-24T22:31:22.073Z,46.61
2018-05-24T22:36:24.598Z,46.81
2018-05-24T22:41:27.107Z,47.10
2018-05-24T22:46:29.637Z,47.97
2018-05-24T22:51:32.139Z,47.87
2018-05-24T22:56:34.676Z,47.73
2018-05-24T23:01:37.231Z,48.18
2018-05-24T23:06:39.750Z,48.59
2018-05-24T23:11:42.249Z,49.09
2018-05-24T23:16:44.755Z,49.49
2018-05-24T23:21:47.329Z,50.23
2018-05-24T23:26:49.847Z,50.80
2018-05-24T23:31:52.453Z,50.34
2018-05-24T23:36:54.958Z,50.56
2018-05-24T23:41:57.536Z,50.82
2018-05-24T23:47:00.130Z,50.37
2018-05-24T23:52:02.664Z,50.57
2018-05-24T23:57:05.209Z,51.00
